createdAt,value
2023-04-13T00:00:27.852Z,7.60
2023-04-13T00:03:17.762Z,8.00
2023-04-13T00:05:46.776Z,8.60
2023-04-13T00:08:17.212Z,8.20
2023-04-13T00:10:46.211Z,8.10
2023-04-13T00:13:15.320Z,9.60
2023-04-13T00:15:43.916Z,10.00
2023-04-13T00:18:12.414Z,9.50
2023-04-13T00:20:41.937Z,9.60
2023-04-13T00:23:10.290Z,10.00
2023-04-13T00:25:38.227Z,9.00
2023-04-13T00:28:06.719Z,8.50
2023-04-13T00:30:34.959Z,7.50
2023-04-13T00:33:05.997Z,8.70
2023-04-13T00:35:34.238Z,6.80
2023-04-13T00:38:05.067Z,7.30
2023-04-13T00:40:33.258Z,7.40
2023-04-13T00:43:02.206Z,7.30
2023-04-13T00:45:30.708Z,7.10
2023-04-13T00:48:00.164Z,7.00
2023-04-13T00:50:28.571Z,7.40
2023-04-13T00:52:58.026Z,7.30
2023-04-13T00:55:27.851Z,7.50
2023-04-13T00:57:56.191Z,6.70
2023-04-13T01:00:25.727Z,6.50
2023-04-13T01:02:55.907Z,6.90
2023-04-13T01:05:26.122Z,7.20
2023-04-13T01:08:18.778Z,6.50
2023-04-13T01:11:13.267Z,6.80
2023-04-13T01:16:19.028Z,6.10
2023-04-13T01:18:52.475Z,5.90
2023-04-13T01:21:25.028Z,4.90
2023-04-13T01:24:02.154Z,4.90
2023-04-13T01:26:46.645Z,5.00
2023-04-13T01:29:14.943Z,4.70
2023-04-13T01:31:44.050Z,5.40
2023-04-13T01:34:12.199Z,4.90
2023-04-13T01:36:40.406Z,4.60
2023-04-13T01:39:10.568Z,4.40
2023-04-13T01:41:38.729Z,4.00
2023-04-13T01:44:07.157Z,4.10
2023-04-13T01:46:35.727Z,4.50
2023-04-13T01:49:11.023Z,4.70
2023-04-13T01:52:02.138Z,4.60
2023-04-13T01:54:33.794Z,4.10
2023-04-13T01:57:02.314Z,4.60
2023-04-13T01:59:30.648Z,4.00
2023-04-13T02:01:59.359Z,3.80
2023-04-13T02:04:28.202Z,4.20
2023-04-13T02:06:56.377Z,4.30
2023-04-13T02:09:31.686Z,4.00
2023-04-13T02:11:59.731Z,4.70
2023-04-13T02:14:27.641Z,4.10
2023-04-13T02:16:55.799Z,4.20
2023-04-13T02:19:24.760Z,4.30
2023-04-13T02:21:53.488Z,3.80
2023-04-13T02:24:21.733Z,4.30
2023-04-13T02:26:49.724Z,4.80
2023-04-13T02:29:17.696Z,4.10
2023-04-13T02:31:46.490Z,3.90
2023-04-13T02:34:14.836Z,4.50
2023-04-13T02:36:43.226Z,4.10
2023-04-13T02:39:11.150Z,4.30
2023-04-13T02:41:42.013Z,4.00
2023-04-13T02:44:11.550Z,3.80
2023-04-13T02:46:47.548Z,3.90
2023-04-13T02:49:17.314Z,3.80
2023-04-13T02:51:55.034Z,3.90
2023-04-13T02:54:30.065Z,4.40
2023-04-13T02:56:58.543Z,4.00
2023-04-13T02:59:26.801Z,3.60
2023-04-13T03:01:58.975Z,4.00
2023-04-13T03:04:29.244Z,3.80
2023-04-13T03:06:58.467Z,3.80
2023-04-13T03:09:26.813Z,4.20
2023-04-13T03:11:56.778Z,4.00
2023-04-13T03:14:29.814Z,5.30
2023-04-13T03:17:05.326Z,4.60
2023-04-13T03:19:38.405Z,5.00
2023-04-13T03:22:06.832Z,5.40
2023-04-13T03:24:37.302Z,6.00
2023-04-13T03:27:07.646Z,5.70
2023-04-13T03:29:39.776Z,5.90
2023-04-13T03:32:08.403Z,5.20
2023-04-13T03:34:43.798Z,6.10
2023-04-13T03:37:12.746Z,5.90
2023-04-13T03:39:41.243Z,5.60
2023-04-13T03:42:11.619Z,5.60
2023-04-13T03:44:43.052Z,5.40
2023-04-13T03:47:11.436Z,5.80
2023-04-13T03:49:39.375Z,5.80
2023-04-13T03:52:07.387Z,6.00
2023-04-13T03:54:40.207Z,5.20
2023-04-13T03:57:08.391Z,5.40
2023-04-13T03:59:36.429Z,5.10
2023-04-13T04:02:04.792Z,6.20
2023-04-13T04:04:33.757Z,5.40
2023-04-13T04:07:01.772Z,5.50
2023-04-13T04:09:29.924Z,4.70
2023-04-13T04:11:58.041Z,6.70
2023-04-13T04:14:36.427Z,7.20
2023-04-13T04:17:14.786Z,7.10
2023-04-13T04:19:43.109Z,6.60
2023-04-13T04:22:14.023Z,6.20
2023-04-13T04:24:42.504Z,6.80
2023-04-13T04:27:14.353Z,6.20
2023-04-13T04:29:49.832Z,6.40
2023-04-13T04:32:24.234Z,6.10
2023-04-13T04:34:53.273Z,7.30
2023-04-13T04:37:22.163Z,6.40
2023-04-13T04:40:01.365Z,6.10
2023-04-13T04:42:29.299Z,6.70
2023-04-13T04:44:57.592Z,6.10
2023-04-13T04:47:30.100Z,6.30
2023-04-13T04:50:21.112Z,6.40
2023-04-13T04:52:53.647Z,5.40
2023-04-13T04:55:23.308Z,6.50
2023-04-13T04:57:51.630Z,6.30
2023-04-13T05:00:21.265Z,6.30
2023-04-13T05:03:01.168Z,5.70
2023-04-13T05:05:30.769Z,5.20
2023-04-13T05:08:01.256Z,5.50
2023-04-13T05:10:30.116Z,6.00
2023-04-13T05:12:58.965Z,5.80
2023-04-13T05:15:28.253Z,5.60
2023-04-13T05:17:56.537Z,5.40
2023-04-13T05:20:28.067Z,5.90
2023-04-13T05:23:01.571Z,5.10
2023-04-13T05:25:29.781Z,5.50
2023-04-13T05:28:00.995Z,5.90
2023-04-13T05:30:29.068Z,6.50
2023-04-13T05:32:57.080Z,5.20
2023-04-13T05:35:28.011Z,5.40
2023-04-13T05:37:57.320Z,5.20
2023-04-13T05:40:26.045Z,5.90
2023-04-13T05:42:54.448Z,6.10
2023-04-13T05:45:25.714Z,6.30
2023-04-13T05:48:02.608Z,7.00
2023-04-13T05:50:30.971Z,6.90
2023-04-13T05:52:59.149Z,6.00
2023-04-13T05:55:29.876Z,6.80
2023-04-13T05:58:06.062Z,6.10
2023-04-13T06:00:34.512Z,6.80
2023-04-13T06:03:04.916Z,6.70
2023-04-13T06:05:35.551Z,6.90
2023-04-13T06:08:03.829Z,8.10
2023-04-13T06:10:31.872Z,9.30
2023-04-13T06:12:59.875Z,6.90
2023-04-13T06:15:27.870Z,6.40
2023-04-13T06:17:55.767Z,5.60
2023-04-13T06:20:24.409Z,6.60
2023-04-13T06:22:52.264Z,5.90
2023-04-13T06:25:21.315Z,7.70
2023-04-13T06:27:50.138Z,7.60
2023-04-13T06:30:18.970Z,7.20
2023-04-13T06:32:47.810Z,6.00
2023-04-13T06:35:17.699Z,5.70
2023-04-13T06:37:47.452Z,5.80
2023-04-13T06:40:21.075Z,4.80
2023-04-13T06:43:00.968Z,7.10
2023-04-13T06:45:48.204Z,6.10
2023-04-13T06:48:21.330Z,6.90
2023-04-13T06:50:52.304Z,7.40
2023-04-13T06:53:20.899Z,5.60
2023-04-13T06:55:48.862Z,6.10
2023-04-13T06:58:17.295Z,6.80
2023-04-13T07:00:45.510Z,5.80
2023-04-13T07:03:13.696Z,9.20
2023-04-13T07:05:45.058Z,6.20
2023-04-13T07:08:15.431Z,7.30
2023-04-13T07:10:44.266Z,8.30
2023-04-13T07:13:18.410Z,8.60
2023-04-13T07:15:47.012Z,7.20
2023-04-13T07:18:15.183Z,6.20
2023-04-13T07:20:43.176Z,7.10
2023-04-13T07:23:12.547Z,6.70
2023-04-13T07:25:41.037Z,7.00
2023-04-13T07:28:15.685Z,5.80
2023-04-13T07:30:44.906Z,6.80
2023-04-13T07:33:13.555Z,6.10
2023-04-13T07:35:41.614Z,7.60
2023-04-13T07:38:10.622Z,8.50
2023-04-13T07:40:38.565Z,9.90
2023-04-13T07:43:09.406Z,8.80
2023-04-13T07:45:38.986Z,4.10
2023-04-13T07:48:08.171Z,2.80
2023-04-13T07:50:42.082Z,4.60
2023-04-13T07:53:13.150Z,2.40
2023-04-13T07:55:41.472Z,3.00
2023-04-13T07:58:09.614Z,2.50
2023-04-13T08:00:37.876Z,2.20
2023-04-13T08:03:07.158Z,3.60
2023-04-13T08:05:36.837Z,2.20
2023-04-13T08:08:05.158Z,5.50
2023-04-13T08:10:33.143Z,4.00
2023-04-13T08:13:03.314Z,3.80
2023-04-13T08:15:31.473Z,2.20
2023-04-13T08:18:00.583Z,2.50
2023-04-13T08:20:29.750Z,2.30
2023-04-13T08:22:58.377Z,2.80
2023-04-13T08:25:26.788Z,2.70
2023-04-13T08:27:54.890Z,2.20
2023-04-13T08:30:23.065Z,3.10
2023-04-13T08:32:58.310Z,3.00
2023-04-13T08:35:26.631Z,3.90
2023-04-13T08:37:55.033Z,4.20
2023-04-13T08:40:23.133Z,3.70
2023-04-13T08:42:55.060Z,2.70
2023-04-13T08:45:23.222Z,3.60
2023-04-13T08:47:51.580Z,2.20
2023-04-13T08:50:22.677Z,4.10
2023-04-13T08:52:54.271Z,3.30
2023-04-13T08:55:22.864Z,3.70
2023-04-13T08:57:56.764Z,1.90
2023-04-13T09:00:25.477Z,2.50
2023-04-13T09:03:05.708Z,1.60
2023-04-13T09:05:42.037Z,2.60
2023-04-13T09:08:13.638Z,2.60
2023-04-13T09:10:42.439Z,2.00
2023-04-13T09:13:10.633Z,2.60
2023-04-13T09:15:39.075Z,1.40
2023-04-13T09:18:23.506Z,2.20
2023-04-13T09:20:59.974Z,2.00
2023-04-13T09:23:27.991Z,2.00
2023-04-13T09:26:06.898Z,2.80
2023-04-13T09:28:45.701Z,3.10
2023-04-13T09:31:13.885Z,2.40
2023-04-13T09:33:49.994Z,2.20
2023-04-13T09:36:20.785Z,2.40
2023-04-13T09:38:53.972Z,2.40
2023-04-13T09:41:40.766Z,2.40
2023-04-13T09:44:17.956Z,2.60
2023-04-13T09:47:02.496Z,2.10
2023-04-13T09:49:38.979Z,2.20
2023-04-13T09:52:08.328Z,2.50
2023-04-13T09:54:36.666Z,3.00
2023-04-13T09:57:05.105Z,2.20
2023-04-13T09:59:34.035Z,1.90
2023-04-13T10:02:03.646Z,1.90
2023-04-13T10:04:31.896Z,2.00
2023-04-13T10:06:59.816Z,2.10
2023-04-13T10:09:27.778Z,2.00
2023-04-13T10:11:56.754Z,2.50
2023-04-13T10:14:31.438Z,1.70
2023-04-13T10:17:31.645Z,4.00
2023-04-13T10:20:07.916Z,2.10
2023-04-13T10:22:36.270Z,2.30
2023-04-13T10:25:06.988Z,2.60
2023-04-13T10:27:36.541Z,2.80
2023-04-13T10:30:18.228Z,2.60
2023-04-13T10:32:46.330Z,3.00
2023-04-13T10:35:15.855Z,3.00
2023-04-13T10:37:46.122Z,3.40
2023-04-13T10:40:16.258Z,2.90
2023-04-13T10:42:52.513Z,2.80
2023-04-13T10:45:28.487Z,2.70
2023-04-13T10:47:58.601Z,2.80
2023-04-13T10:50:29.733Z,2.60
2023-04-13T10:53:00.595Z,4.20
2023-04-13T10:55:29.327Z,1.80
2023-04-13T10:57:59.465Z,2.40
2023-04-13T11:00:44.637Z,2.20
2023-04-13T11:03:17.002Z,2.00
2023-04-13T11:05:47.424Z,2.30
2023-04-13T11:08:20.847Z,2.20
2023-04-13T11:13:21.859Z,1.50
2023-04-13T11:15:49.885Z,2.20
2023-04-13T11:18:26.527Z,2.60
2023-04-13T11:20:54.877Z,2.00
2023-04-13T11:23:24.363Z,1.70
2023-04-13T11:25:58.523Z,2.10
2023-04-13T11:28:36.877Z,2.50
2023-04-13T11:31:06.342Z,2.00
2023-04-13T11:33:34.339Z,2.00
2023-04-13T11:36:02.542Z,1.60
2023-04-13T11:38:30.565Z,3.00
2023-04-13T11:43:37.752Z,2.50
2023-04-13T11:46:06.048Z,2.80
2023-04-13T11:48:34.381Z,2.00
2023-04-13T11:51:02.666Z,1.60
2023-04-13T11:53:32.189Z,1.60
2023-04-13T11:56:00.733Z,1.80
2023-04-13T11:58:28.720Z,2.30
2023-04-13T12:01:02.176Z,2.50
2023-04-13T12:03:42.514Z,1.30
2023-04-13T12:06:22.175Z,1.70
2023-04-13T12:08:57.773Z,1.80
2023-04-13T12:11:43.935Z,1.70
2023-04-13T12:19:27.230Z,1.70
2023-04-13T12:21:57.583Z,1.80
2023-04-13T12:24:38.271Z,2.30
2023-04-13T12:29:41.042Z,1.60
2023-04-13T12:32:17.014Z,1.70
2023-04-13T12:34:45.261Z,1.70
2023-04-13T12:37:13.183Z,1.60
2023-04-13T12:39:42.142Z,1.50
2023-04-13T12:42:10.057Z,1.90
2023-04-13T12:44:37.993Z,2.70
2023-04-13T12:47:06.796Z,2.60
2023-04-13T12:49:34.658Z,2.40
2023-04-13T12:52:02.507Z,2.40
2023-04-13T12:54:30.880Z,2.00
2023-04-13T12:56:59.784Z,2.00
2023-04-13T12:59:27.793Z,2.90
2023-04-13T13:01:56.012Z,2.20
2023-04-13T13:04:24.002Z,2.60
2023-04-13T13:06:52.468Z,4.30
2023-04-13T13:09:20.730Z,2.80
2023-04-13T13:11:48.765Z,5.70
2023-04-13T13:14:16.690Z,4.80
2023-04-13T13:16:44.631Z,4.10
2023-04-13T13:19:12.497Z,2.60
2023-04-13T13:21:40.427Z,5.30
2023-04-13T13:24:08.375Z,5.50
2023-04-13T13:27:00.081Z,4.80
2023-04-13T13:29:24.179Z,5.30
2023-04-13T13:31:52.533Z,8.10
2023-04-13T13:34:20.590Z,5.90
2023-04-13T13:36:49.545Z,5.80
2023-04-13T13:39:18.827Z,5.00
2023-04-13T13:41:47.003Z,5.70
2023-04-13T13:44:15.453Z,7.30
2023-04-13T13:46:43.824Z,6.60
2023-04-13T13:49:11.982Z,7.00
2023-04-13T13:51:43.149Z,6.00
2023-04-13T13:54:12.861Z,7.50
2023-04-13T13:56:40.721Z,9.70
2023-04-13T13:59:08.990Z,9.00
2023-04-13T14:01:37.856Z,8.10
2023-04-13T14:04:05.930Z,9.20
2023-04-13T14:06:33.944Z,7.20
2023-04-13T14:09:02.302Z,5.60
2023-04-13T14:11:31.891Z,7.00
2023-04-13T14:14:10.868Z,7.10
2023-04-13T14:16:39.372Z,5.30
2023-04-13T14:19:07.383Z,6.60
2023-04-13T14:21:35.341Z,5.60
2023-04-13T14:24:03.378Z,6.80
2023-04-13T14:26:31.289Z,7.50
2023-04-13T14:28:59.326Z,13.60
2023-04-13T14:31:27.525Z,12.50
2023-04-13T14:33:55.887Z,8.90
2023-04-13T14:36:24.542Z,9.10
2023-04-13T14:38:52.562Z,8.10
2023-04-13T14:41:21.143Z,4.30
2023-04-13T14:43:49.143Z,2.90
2023-04-13T14:46:17.080Z,2.90
2023-04-13T14:48:44.969Z,3.90
2023-04-13T14:51:17.193Z,4.30
2023-04-13T14:53:45.155Z,4.30
2023-04-13T14:56:13.033Z,4.00
2023-04-13T14:58:41.117Z,4.90
2023-04-13T15:01:17.131Z,3.30
2023-04-13T15:03:46.946Z,3.70
2023-04-13T15:06:15.208Z,5.20
2023-04-13T15:08:43.110Z,5.90
2023-04-13T15:11:11.010Z,3.30
2023-04-13T15:13:39.320Z,2.70
2023-04-13T15:16:07.947Z,4.10
2023-04-13T15:18:36.014Z,3.90
2023-04-13T15:21:04.116Z,3.30
2023-04-13T15:23:33.165Z,2.50
2023-04-13T15:26:01.242Z,2.50
2023-04-13T15:28:29.201Z,3.70
2023-04-13T15:30:57.300Z,3.40
2023-04-13T15:33:25.374Z,6.00
2023-04-13T15:35:53.413Z,6.40
2023-04-13T15:38:21.829Z,6.60
2023-04-13T15:40:49.821Z,5.30
2023-04-13T15:43:17.878Z,4.50
2023-04-13T15:45:48.518Z,4.90
2023-04-13T15:48:17.821Z,8.70
2023-04-13T15:50:45.783Z,11.70
2023-04-13T15:53:13.743Z,13.30
2023-04-13T15:55:42.507Z,9.10
2023-04-13T15:58:10.437Z,14.60
2023-04-13T16:00:38.462Z,11.80
2023-04-13T16:03:06.623Z,11.20
2023-04-13T16:05:34.590Z,10.20
2023-04-13T16:08:03.278Z,9.40
2023-04-13T16:10:31.354Z,10.50
2023-04-13T16:12:59.332Z,9.90
2023-04-13T16:15:27.354Z,11.80
2023-04-13T16:17:57.050Z,12.60
2023-04-13T16:20:28.359Z,14.60
2023-04-13T16:22:59.371Z,17.40
2023-04-13T16:25:27.267Z,18.50
2023-04-13T16:27:56.309Z,16.70
2023-04-13T16:30:24.461Z,18.40
2023-04-13T16:32:52.572Z,17.00
2023-04-13T16:35:20.776Z,16.20
2023-04-13T16:37:48.687Z,20.10
2023-04-13T16:40:16.998Z,20.60
2023-04-13T16:42:46.260Z,18.20
2023-04-13T16:45:15.217Z,16.10
2023-04-13T16:47:43.951Z,17.60
2023-04-13T16:50:12.648Z,19.60
2023-04-13T16:52:41.051Z,18.90
2023-04-13T16:55:14.033Z,13.60
2023-04-13T16:57:43.408Z,16.50
2023-04-13T17:00:12.998Z,16.50
2023-04-13T17:02:43.100Z,13.50
2023-04-13T17:05:12.705Z,14.40
2023-04-13T17:07:43.562Z,12.40
2023-04-13T17:10:13.655Z,9.50
2023-04-13T17:12:42.014Z,9.40
2023-04-13T17:15:10.631Z,8.00
2023-04-13T17:17:38.844Z,7.30
2023-04-13T17:20:08.501Z,8.30
2023-04-13T17:22:37.378Z,11.90
2023-04-13T17:25:05.840Z,11.00
2023-04-13T17:27:34.105Z,13.70
2023-04-13T17:30:02.163Z,10.80
2023-04-13T17:32:30.128Z,14.90
2023-04-13T17:34:58.585Z,13.70
2023-04-13T17:37:29.431Z,7.20
2023-04-13T17:39:57.823Z,6.20
2023-04-13T17:42:27.498Z,6.10
2023-04-13T17:44:56.173Z,5.60
2023-04-13T17:47:25.063Z,6.00
2023-04-13T17:49:53.647Z,5.30
2023-04-13T17:52:21.539Z,6.10
2023-04-13T17:54:49.694Z,5.50
2023-04-13T17:57:17.636Z,5.90
2023-04-13T17:59:46.718Z,6.60
2023-04-13T18:02:14.779Z,7.70
2023-04-13T18:04:43.084Z,8.60
2023-04-13T18:07:11.439Z,14.40
2023-04-13T18:09:39.443Z,17.00
2023-04-13T18:12:07.492Z,15.80
2023-04-13T18:14:35.861Z,10.60
2023-04-13T18:17:03.793Z,15.30
2023-04-13T18:19:32.654Z,14.80
2023-04-13T18:22:01.200Z,10.40
2023-04-13T18:24:29.387Z,10.50
2023-04-13T18:26:57.847Z,10.70
2023-04-13T18:29:26.250Z,9.50
2023-04-13T18:31:54.488Z,9.70
2023-04-13T18:34:22.563Z,9.40
2023-04-13T18:36:50.587Z,7.90
2023-04-13T18:39:19.223Z,9.60
2023-04-13T18:41:47.275Z,8.90
2023-04-13T18:44:15.905Z,8.00
2023-04-13T18:46:43.913Z,5.40
2023-04-13T18:49:11.735Z,6.80
2023-04-13T18:51:39.651Z,8.00
2023-04-13T18:54:07.925Z,7.10
2023-04-13T18:56:36.098Z,6.80
2023-04-13T18:59:04.012Z,6.40
2023-04-13T19:01:32.538Z,6.10
2023-04-13T19:04:01.426Z,5.90
2023-04-13T19:06:30.144Z,6.00
2023-04-13T19:08:58.305Z,5.80
2023-04-13T19:11:27.738Z,5.20
2023-04-13T19:13:56.855Z,6.30
2023-04-13T19:16:26.357Z,5.20
2023-04-13T19:18:54.451Z,4.80
2023-04-13T19:21:23.976Z,6.10
2023-04-13T19:23:52.914Z,6.40
2023-04-13T19:26:21.177Z,6.40
2023-04-13T19:28:49.095Z,6.20
2023-04-13T19:31:17.257Z,7.10
2023-04-13T19:33:46.442Z,7.50
2023-04-13T19:36:15.202Z,7.50
2023-04-13T19:38:45.133Z,31.60
2023-04-13T19:41:13.764Z,32.80
2023-04-13T19:43:42.011Z,22.50
2023-04-13T19:46:10.243Z,15.80
2023-04-13T19:48:39.130Z,14.00
2023-04-13T19:51:08.391Z,12.90
2023-04-13T19:53:38.247Z,13.40
2023-04-13T19:56:06.764Z,10.70
2023-04-13T19:58:35.162Z,10.80
2023-04-13T20:01:04.914Z,10.20
2023-04-13T20:03:33.541Z,10.80
2023-04-13T20:06:02.838Z,9.80
2023-04-13T20:08:30.911Z,8.60
2023-04-13T20:10:59.963Z,5.70
2023-04-13T20:13:28.001Z,4.90
2023-04-13T20:15:55.967Z,5.50
2023-04-13T20:18:23.906Z,4.90
2023-04-13T20:20:52.491Z,6.40
2023-04-13T20:23:20.338Z,6.30
2023-04-13T20:25:48.240Z,6.90
2023-04-13T20:28:17.906Z,9.10
2023-04-13T20:30:45.793Z,12.70
2023-04-13T20:33:13.989Z,11.20
2023-04-13T20:35:42.074Z,9.70
2023-04-13T20:38:10.167Z,10.40
2023-04-13T20:40:38.186Z,15.80
2023-04-13T20:43:06.380Z,15.60
2023-04-13T20:45:36.245Z,17.20
2023-04-13T20:50:35.729Z,6.40
2023-04-13T20:53:04.865Z,6.70
2023-04-13T20:55:33.326Z,7.10
2023-04-13T20:58:01.726Z,9.10
2023-04-13T21:00:29.997Z,5.60
2023-04-13T21:02:57.954Z,3.90
2023-04-13T21:05:26.051Z,3.80
2023-04-13T21:07:55.301Z,3.40
2023-04-13T21:10:24.985Z,2.90
2023-04-13T21:12:52.845Z,3.50
2023-04-13T21:15:20.904Z,3.10
2023-04-13T21:17:49.048Z,3.10
2023-04-13T21:20:16.980Z,4.30
2023-04-13T21:22:44.848Z,4.80
2023-04-13T21:25:12.709Z,5.50
2023-04-13T21:27:40.769Z,5.20
2023-04-13T21:30:09.054Z,4.00
2023-04-13T21:32:37.094Z,5.20
2023-04-13T21:35:05.476Z,8.10
2023-04-13T21:37:33.514Z,8.40
2023-04-13T21:40:01.365Z,7.50
2023-04-13T21:42:29.259Z,5.70
2023-04-13T21:44:57.305Z,4.60
2023-04-13T21:47:25.266Z,4.30
2023-04-13T21:49:53.210Z,3.80
2023-04-13T21:52:21.046Z,4.80
2023-04-13T21:54:51.395Z,5.90
2023-04-13T21:57:19.598Z,5.50
2023-04-13T21:59:47.479Z,6.20
2023-04-13T22:02:15.939Z,4.40
2023-04-13T22:04:43.917Z,4.50
2023-04-13T22:07:12.180Z,5.30
2023-04-13T22:09:40.493Z,7.00
2023-04-13T22:12:10.769Z,6.70
2023-04-13T22:14:38.629Z,6.20
2023-04-13T22:17:06.735Z,5.80
2023-04-13T22:19:34.604Z,5.60
2023-04-13T22:22:02.506Z,5.60
2023-04-13T22:24:30.374Z,5.60
2023-04-13T22:26:58.414Z,5.50
2023-04-13T22:29:26.340Z,4.60
2023-04-13T22:31:54.704Z,3.80
2023-04-13T22:34:22.652Z,4.10
2023-04-13T22:36:52.376Z,4.10
2023-04-13T22:39:20.611Z,4.40
2023-04-13T22:41:48.430Z,4.40
2023-04-13T22:44:16.275Z,4.50
2023-04-13T22:46:44.192Z,5.00
2023-04-13T22:49:12.028Z,4.30
2023-04-13T22:51:40.619Z,4.80
2023-04-13T22:54:08.449Z,5.60
2023-04-13T22:56:36.333Z,7.00
2023-04-13T22:59:04.219Z,7.40
2023-04-13T23:01:32.172Z,8.40
2023-04-13T23:04:00.250Z,9.00
2023-04-13T23:06:28.475Z,7.40
2023-04-13T23:08:59.032Z,7.90
2023-04-13T23:11:27.400Z,6.70
2023-04-13T23:13:55.377Z,6.50
2023-04-13T23:16:23.397Z,6.60
2023-04-13T23:18:51.263Z,6.00
2023-04-13T23:21:19.086Z,5.90
2023-04-13T23:23:46.959Z,6.00
2023-04-13T23:26:14.842Z,5.60
2023-04-13T23:28:42.748Z,5.50
2023-04-13T23:31:10.904Z,6.30
2023-04-13T23:33:39.006Z,6.30
2023-04-13T23:36:07.329Z,6.00
2023-04-13T23:38:35.697Z,5.90
2023-04-13T23:41:03.630Z,5.10
2023-04-13T23:43:32.513Z,5.10
2023-04-13T23:46:00.561Z,5.60
2023-04-13T23:48:28.488Z,4.90
2023-04-13T23:50:57.548Z,4.30
2023-04-13T23:53:25.404Z,4.30
2023-04-13T23:55:53.281Z,4.40
2023-04-13T23:58:21.157Z,4.60
